Terminal Aerodrome Forecast
Issued by NWS

Home | Current Version | Previous Version | Text Only | Print | Product List | Glossary On
Versions: 1 2 3 4 5 6 7 8 9 10 11 12 13 14 15 16 17 18 19 20 21 22 23 24 25 26 27 28 29 30
000
FTUS46 KMTR 011100
TAFSFO
TAF
KSFO 011139Z 0112/0218 03004KT P6SM FEW030 SCT050
     FM012200 31008KT P6SM FEW035 SCT200
     FM020100 28012KT P6SM FEW035 SCT150
     FM020600 27006KT P6SM FEW025
     FM021000 24004KT 6SM BR FEW010=

USA.gov is the U.S. government's official web portal to all federal, state and local government web resources and services.